Time;durP1;ratioP1;P1;durP2;ratioP2;P2;SDS_P1;SDS_P2;PMS_P1;PMS_P2;Temp;Humidity;BMP_temperature;BMP_pressure;BME280_temperature;BME280_humidity;BME280_pressure;Samples;Min_cycle;Max_cycle;Signal;HPM_P1;HPM_P2
2022/07/19 00:00:34;;;;;;;9.80;2.20;;;22.80;88.00;;;;;;5027624;28;20052;-41
2022/07/19 00:02:59;;;;;;;3.00;2.00;;;22.80;88.30;;;;;;5020545;28;20056;-38
2022/07/19 00:05:25;;;;;;;4.35;2.40;;;22.70;87.90;;;;;;5024883;28;20163;-40
2022/07/19 00:07:51;;;;;;;4.38;2.47;;;22.70;87.60;;;;;;5022613;28;20044;-39
2022/07/19 00:10:19;;;;;;;4.15;2.10;;;22.70;87.00;;;;;;5023836;28;20120;-39
2022/07/19 00:12:45;;;;;;;7.32;2.70;;;22.60;85.90;;;;;;5024815;28;20266;-39
2022/07/19 00:15:14;;;;;;;3.30;2.00;;;22.60;85.10;;;;;;5026185;28;20049;-40
2022/07/19 00:17:43;;;;;;;5.15;2.83;;;22.60;84.40;;;;;;5021998;28;20030;-42
2022/07/19 00:20:11;;;;;;;4.82;2.97;;;22.50;83.80;;;;;;5020348;28;20046;-40
2022/07/19 00:22:37;;;;;;;5.53;2.63;;;22.40;83.20;;;;;;5022050;28;20041;-39
2022/07/19 00:25:04;;;;;;;5.63;2.75;;;22.40;83.20;;;;;;5025619;28;20033;-40
2022/07/19 00:27:30;;;;;;;6.22;2.80;;;22.40;83.80;;;;;;5026191;28;20045;-38
2022/07/19 00:29:56;;;;;;;5.15;2.80;;;22.30;82.60;;;;;;5026955;28;20060;-39
2022/07/19 00:32:21;;;;;;;4.60;2.80;;;22.30;82.40;;;;;;5021852;28;20148;-38
2022/07/19 00:34:47;;;;;;;5.15;2.85;;;22.30;82.30;;;;;;5021173;28;21857;-38
2022/07/19 00:37:13;;;;;;;4.60;2.70;;;22.30;82.50;;;;;;5023939;28;20044;-39
2022/07/19 00:39:38;;;;;;;3.10;2.33;;;22.20;82.70;;;;;;5026355;28;20033;-42
2022/07/19 00:42:04;;;;;;;4.90;2.65;;;22.20;83.30;;;;;;5024725;28;20124;-41
2022/07/19 00:44:30;;;;;;;4.07;2.50;;;22.20;83.70;;;;;;5019962;28;20037;-40
2022/07/19 00:46:56;;;;;;;4.45;2.38;;;22.10;83.80;;;;;;5024751;28;20044;-39
2022/07/19 00:49:22;;;;;;;4.13;2.88;;;22.10;83.30;;;;;;5026002;28;20037;-41
2022/07/19 00:51:54;;;;;;;4.72;2.47;;;22.10;83.00;;;;;;5024948;28;20417;-42
2022/07/19 00:54:21;;;;;;;4.78;2.63;;;22.10;82.80;;;;;;5024847;28;20562;-39
2022/07/19 00:56:49;;;;;;;4.05;2.55;;;22.10;82.70;;;;;;5019501;28;20550;-39
2022/07/19 00:59:15;;;;;;;5.22;2.90;;;22.10;83.00;;;;;;5025429;28;20474;-39
2022/07/19 01:01:41;;;;;;;5.50;2.78;;;22.00;83.00;;;;;;5030355;28;20037;-39
2022/07/19 01:04:07;;;;;;;5.25;2.67;;;22.00;83.30;;;;;;5028640;28;20048;-39
2022/07/19 01:06:33;;;;;;;3.53;2.10;;;21.90;83.60;;;;;;5027504;28;20159;-41
2022/07/19 01:08:59;;;;;;;4.57;2.42;;;21.90;84.50;;;;;;5030408;28;20492;-42
2022/07/19 01:11:25;;;;;;;7.30;2.95;;;21.80;85.60;;;;;;5028003;28;20041;-41
2022/07/19 01:13:50;;;;;;;4.50;2.22;;;21.80;86.30;;;;;;5028104;28;20080;-38
2022/07/19 01:16:16;;;;;;;5.25;2.63;;;21.70;86.70;;;;;;5023156;28;20335;-41
2022/07/19 01:18:42;;;;;;;4.80;2.70;;;21.70;86.70;;;;;;5025374;28;20455;-44
2022/07/19 01:21:17;;;;;;;5.25;3.25;;;21.70;85.80;;;;;;5007459;28;20045;-44
2022/07/19 01:23:43;;;;;;;4.70;2.90;;;21.70;85.20;;;;;;5028859;28;20037;-40
2022/07/19 01:26:08;;;;;;;5.40;3.35;;;21.70;84.60;;;;;;5026769;28;20171;-39
2022/07/19 01:28:34;;;;;;;5.43;3.20;;;21.70;83.80;;;;;;5028722;28;20374;-45
2022/07/19 01:31:00;;;;;;;6.30;3.30;;;21.70;83.80;;;;;;5028315;28;20458;-43
2022/07/19 01:33:26;;;;;;;7.88;3.22;;;21.60;83.80;;;;;;5028945;28;20060;-45
2022/07/19 01:35:51;;;;;;;5.75;3.20;;;21.60;83.40;;;;;;5021029;28;20179;-43
2022/07/19 01:38:17;;;;;;;7.28;3.13;;;21.60;83.50;;;;;;5029061;28;20182;-40
2022/07/19 01:40:42;;;;;;;7.13;3.70;;;21.60;83.60;;;;;;5027789;28;20129;-45
2022/07/19 01:43:08;;;;;;;7.47;3.85;;;21.60;83.60;;;;;;5026863;28;20037;-46
2022/07/19 01:45:34;;;;;;;8.88;3.92;;;21.50;83.40;;;;;;5027276;28;20037;-42
2022/07/19 01:48:00;;;;;;;5.28;3.83;;;21.50;83.30;;;;;;5004410;28;20490;-42
2022/07/19 01:50:26;;;;;;;5.72;3.88;;;21.50;83.00;;;;;;5024534;28;20045;-39
2022/07/19 01:52:52;;;;;;;6.20;3.58;;;21.50;82.80;;;;;;5027581;28;20366;-44
2022/07/19 01:55:19;;;;;;;8.45;4.00;;;21.50;82.80;;;;;;5027490;28;20048;-40
2022/07/19 01:57:45;;;;;;;5.85;3.47;;;21.50;82.70;;;;;;5026017;28;20568;-43
2022/07/19 02:00:11;;;;;;;5.57;3.38;;;21.50;82.80;;;;;;5025396;28;20049;-40
2022/07/19 02:02:37;;;;;;;7.60;3.90;;;21.50;82.90;;;;;;5024738;28;20109;-42
2022/07/19 02:05:03;;;;;;;9.63;3.83;;;21.50;82.80;;;;;;5024116;28;20545;-41
2022/07/19 02:07:29;;;;;;;9.93;3.95;;;21.50;82.30;;;;;;5020772;28;20087;-41
2022/07/19 02:09:57;;;;;;;9.25;3.90;;;21.40;82.20;;;;;;5009166;28;20198;-39
2022/07/19 02:12:23;;;;;;;6.60;3.88;;;21.40;83.50;;;;;;5021274;28;20220;-43
2022/07/19 02:14:48;;;;;;;6.97;3.67;;;21.30;82.90;;;;;;5022611;28;20145;-42
2022/07/19 02:17:14;;;;;;;6.07;3.92;;;21.20;83.30;;;;;;5023414;28;20099;-40
2022/07/19 02:19:39;;;;;;;8.23;4.03;;;21.10;84.80;;;;;;5023248;28;20033;-43
2022/07/19 02:22:05;;;;;;;5.25;3.63;;;21.10;83.50;;;;;;5023022;28;20056;-40
2022/07/19 02:24:31;;;;;;;4.97;3.40;;;21.10;83.10;;;;;;5006084;28;20324;-40
2022/07/19 02:26:56;;;;;;;7.10;4.20;;;21.10;82.90;;;;;;5026206;28;20064;-41
2022/07/19 02:29:22;;;;;;;7.68;4.05;;;21.10;83.10;;;;;;5029084;28;20056;-40
2022/07/19 02:31:48;;;;;;;8.10;3.92;;;21.10;83.30;;;;;;5028910;28;20109;-40
2022/07/19 02:34:13;;;;;;;7.45;3.97;;;21.10;83.30;;;;;;5027750;28;20132;-41
2022/07/19 02:36:39;;;;;;;6.15;4.43;;;21.10;83.20;;;;;;5025070;28;20410;-42
2022/07/19 02:39:05;;;;;;;6.38;4.32;;;21.10;83.10;;;;;;5025392;28;20390;-42
2022/07/19 02:41:31;;;;;;;8.70;4.07;;;21.10;82.90;;;;;;5025581;28;20116;-39
2022/07/19 02:43:57;;;;;;;6.03;3.80;;;21.10;82.70;;;;;;5025188;28;20145;-41
2022/07/19 02:46:23;;;;;;;8.50;4.25;;;21.00;82.90;;;;;;5026697;28;20537;-42
2022/07/19 02:48:48;;;;;;;7.43;4.10;;;21.00;82.80;;;;;;5028202;28;20129;-39
2022/07/19 02:51:14;;;;;;;6.55;3.83;;;21.00;82.80;;;;;;5026602;28;20045;-40
2022/07/19 02:53:40;;;;;;;5.88;3.53;;;20.90;82.80;;;;;;5025090;28;20129;-37
2022/07/19 02:56:06;;;;;;;8.40;5.03;;;20.90;82.50;;;;;;5024764;28;20041;-41
2022/07/19 02:58:31;;;;;;;6.13;3.70;;;20.90;82.50;;;;;;5023507;28;20386;-44
2022/07/19 03:00:57;;;;;;;7.80;4.50;;;20.90;82.70;;;;;;5025113;28;20148;-42
2022/07/19 03:06:07;;;;;;;7.03;3.75;;;20.80;83.00;;;;;;5025350;28;20072;-42
2022/07/19 03:08:33;;;;;;;7.22;4.03;;;20.80;83.30;;;;;;5016470;28;20067;-38
2022/07/19 03:10:59;;;;;;;7.70;3.92;;;20.70;83.60;;;;;;5019152;28;20081;-39
2022/07/19 03:13:24;;;;;;;7.50;4.13;;;20.60;84.00;;;;;;5015433;28;20050;-42
2022/07/19 03:15:50;;;;;;;7.40;4.38;;;20.60;84.00;;;;;;5005560;28;20041;-40
2022/07/19 03:18:16;;;;;;;6.30;4.15;;;20.60;83.90;;;;;;5018778;28;20133;-39
2022/07/19 03:20:41;;;;;;;7.88;4.80;;;20.60;83.60;;;;;;5024755;28;20033;-40
2022/07/19 03:23:07;;;;;;;6.43;4.70;;;20.60;83.30;;;;;;5024241;28;20045;-41
2022/07/19 03:25:33;;;;;;;5.47;4.03;;;20.60;83.10;;;;;;5027572;28;20140;-40
2022/07/19 03:27:59;;;;;;;6.18;4.18;;;20.60;83.10;;;;;;5008955;28;20547;-40
2022/07/19 03:30:26;;;;;;;4.95;3.88;;;20.60;82.90;;;;;;5018818;28;20231;-43
2022/07/19 03:32:52;;;;;;;7.75;4.55;;;20.50;82.90;;;;;;5022967;28;20052;-39
2022/07/19 03:35:19;;;;;;;6.18;4.05;;;20.60;83.10;;;;;;5025158;28;20119;-46
2022/07/19 03:37:46;;;;;;;5.15;3.70;;;20.60;83.00;;;;;;5023656;28;20042;-43
2022/07/19 03:40:12;;;;;;;7.53;4.55;;;20.50;83.10;;;;;;5023630;28;20091;-39
2022/07/19 03:42:37;;;;;;;6.03;3.78;;;20.60;83.40;;;;;;5027764;28;20122;-43
2022/07/19 03:45:04;;;;;;;8.88;4.47;;;20.50;84.80;;;;;;5005441;28;20520;-38
2022/07/19 03:47:30;;;;;;;6.60;3.80;;;20.50;84.10;;;;;;5023781;28;20033;-39
2022/07/19 03:49:57;;;;;;;8.50;4.18;;;20.50;83.90;;;;;;5006293;28;20516;-42
2022/07/19 03:52:23;;;;;;;6.45;4.22;;;20.50;84.10;;;;;;5021782;28;20046;-41
2022/07/19 03:54:49;;;;;;;6.85;3.85;;;20.50;84.10;;;;;;5008824;28;20049;-41
2022/07/19 03:57:15;;;;;;;8.15;4.30;;;20.50;84.20;;;;;;5025527;28;20041;-40
2022/07/19 03:59:40;;;;;;;6.55;4.45;;;20.40;84.20;;;;;;5017917;28;20034;-36
2022/07/19 04:02:06;;;;;;;6.28;4.28;;;20.40;84.30;;;;;;5013635;28;20034;-41
2022/07/19 04:04:32;;;;;;;6.95;3.83;;;20.40;84.00;;;;;;5021856;28;20057;-39
2022/07/19 04:06:58;;;;;;;6.00;4.40;;;20.40;84.10;;;;;;5021401;28;20049;-40
2022/07/19 04:09:23;;;;;;;12.88;4.35;;;20.40;84.00;;;;;;5024555;28;20045;-41
2022/07/19 04:11:49;;;;;;;8.43;4.85;;;20.40;84.40;;;;;;5026098;28;20044;-40
2022/07/19 04:14:15;;;;;;;6.13;4.15;;;20.40;84.30;;;;;;5023709;28;20773;-42
2022/07/19 04:16:41;;;;;;;6.85;4.55;;;20.30;84.20;;;;;;5021065;28;20042;-39
2022/07/19 04:19:06;;;;;;;7.70;4.35;;;20.30;84.10;;;;;;5025306;28;20041;-43
2022/07/19 04:21:32;;;;;;;7.72;4.80;;;20.30;84.20;;;;;;5023802;28;20030;-39
2022/07/19 04:23:58;;;;;;;7.82;4.78;;;20.30;84.30;;;;;;5030066;28;20064;-39
2022/07/19 04:26:23;;;;;;;8.25;4.75;;;20.30;84.20;;;;;;5028164;28;20037;-40
2022/07/19 04:28:49;;;;;;;6.13;4.28;;;20.30;84.10;;;;;;5031318;28;20045;-40
2022/07/19 04:31:16;;;;;;;7.25;4.40;;;20.30;84.00;;;;;;5009864;28;20137;-39
2022/07/19 04:33:42;;;;;;;8.75;5.35;;;20.30;84.00;;;;;;5020222;28;20041;-40
2022/07/19 04:36:08;;;;;;;10.15;4.82;;;20.30;84.10;;;;;;5025851;28;20041;-40
2022/07/19 04:38:33;;;;;;;5.82;4.30;;;20.30;83.90;;;;;;5027944;28;20038;-39
2022/07/19 04:41:00;;;;;;;7.10;4.85;;;20.30;84.10;;;;;;5030491;28;20041;-43
2022/07/19 04:43:26;;;;;;;7.97;5.03;;;20.30;84.20;;;;;;5029368;28;20497;-40
2022/07/19 04:45:51;;;;;;;7.88;4.70;;;20.40;84.10;;;;;;5027403;28;20053;-46
2022/07/19 04:48:17;;;;;;;8.40;4.65;;;20.30;84.40;;;;;;5027960;28;20103;-39
2022/07/19 04:50:42;;;;;;;7.55;4.65;;;20.40;84.60;;;;;;5029999;28;20029;-41
2022/07/19 04:53:08;;;;;;;7.22;4.55;;;20.40;84.90;;;;;;5027037;28;20558;-40
2022/07/19 04:55:36;;;;;;;7.40;4.47;;;20.40;84.70;;;;;;5024439;28;20087;-42
2022/07/19 04:58:02;;;;;;;7.32;4.50;;;20.50;85.10;;;;;;5029864;28;20132;-39
2022/07/19 05:00:28;;;;;;;7.22;4.13;;;20.50;85.10;;;;;;5028010;28;20120;-37
2022/07/19 05:02:55;;;;;;;8.15;4.60;;;20.50;85.00;;;;;;5025077;28;20039;-39
2022/07/19 05:05:20;;;;;;;7.50;4.85;;;20.60;85.20;;;;;;5029675;28;20034;-39
2022/07/19 05:07:46;;;;;;;9.20;4.55;;;20.60;84.90;;;;;;5025328;28;20037;-40
2022/07/19 05:10:12;;;;;;;7.40;4.30;;;20.70;84.60;;;;;;5025868;28;20076;-39
2022/07/19 05:12:39;;;;;;;11.60;5.10;;;20.70;84.60;;;;;;5029854;28;20131;-41
2022/07/19 05:15:06;;;;;;;6.70;3.92;;;20.70;84.70;;;;;;5026080;28;20107;-39
2022/07/19 05:17:32;;;;;;;8.52;4.47;;;20.70;85.00;;;;;;5024675;28;20370;-40
2022/07/19 05:19:57;;;;;;;6.70;4.25;;;20.80;85.20;;;;;;5025118;28;20049;-43
2022/07/19 05:22:24;;;;;;;7.93;4.60;;;20.80;85.10;;;;;;5029136;28;20404;-38
2022/07/19 05:24:52;;;;;;;7.22;5.10;;;20.90;85.00;;;;;;5024029;28;20041;-39
2022/07/19 05:27:18;;;;;;;7.15;4.72;;;20.90;84.70;;;;;;5028048;28;20407;-41
2022/07/19 05:29:44;;;;;;;9.80;4.95;;;21.00;84.70;;;;;;5028576;28;20041;-39
2022/07/19 05:32:10;;;;;;;7.07;4.90;;;21.00;84.10;;;;;;5026146;28;20449;-40
2022/07/19 05:34:35;;;;;;;8.65;5.25;;;21.10;83.80;;;;;;5025369;28;20102;-38
2022/07/19 05:37:01;;;;;;;9.13;4.10;;;21.20;83.60;;;;;;5028771;28;20489;-42
2022/07/19 05:39:27;;;;;;;5.55;4.10;;;21.30;83.80;;;;;;5026627;28;20045;-42
2022/07/19 05:41:53;;;;;;;7.00;4.40;;;21.30;83.50;;;;;;5026864;28;20342;-40
2022/07/19 05:44:18;;;;;;;5.80;3.90;;;21.30;83.40;;;;;;5028708;28;20025;-40
2022/07/19 05:46:44;;;;;;;7.07;5.13;;;21.40;83.40;;;;;;5027644;28;20029;-40
2022/07/19 05:49:13;;;;;;;7.53;4.10;;;21.40;83.40;;;;;;5028174;28;20121;-41
2022/07/19 05:51:39;;;;;;;6.53;4.03;;;21.40;83.20;;;;;;5023758;28;20575;-40
2022/07/19 05:54:06;;;;;;;7.32;5.10;;;21.50;83.40;;;;;;5024040;28;20106;-39
2022/07/19 05:56:32;;;;;;;4.65;3.35;;;21.50;83.10;;;;;;5008984;28;20056;-42
2022/07/19 05:58:58;;;;;;;8.88;4.00;;;21.60;82.80;;;;;;5025240;28;20532;-38
2022/07/19 06:01:24;;;;;;;6.30;4.10;;;21.70;82.40;;;;;;5027529;28;20029;-40
2022/07/19 06:03:55;;;;;;;10.68;4.68;;;21.80;81.90;;;;;;5028099;28;20061;-39
2022/07/19 06:06:22;;;;;;;7.35;5.07;;;21.90;81.50;;;;;;5025477;28;20049;-40
2022/07/19 06:08:48;;;;;;;5.90;4.35;;;22.00;80.80;;;;;;5025153;28;20049;-39
2022/07/19 06:11:15;;;;;;;5.85;4.38;;;22.10;80.30;;;;;;5028811;28;20041;-42
2022/07/19 06:13:41;;;;;;;6.05;4.38;;;22.10;80.10;;;;;;5028028;28;20148;-39
2022/07/19 06:16:07;;;;;;;7.53;3.88;;;22.20;79.90;;;;;;5026739;28;20441;-40
2022/07/19 06:18:36;;;;;;;7.35;4.80;;;22.30;79.80;;;;;;5027039;28;20045;-39
2022/07/19 06:21:09;;;;;;;5.30;4.15;;;22.40;79.40;;;;;;5028785;28;20487;-39
2022/07/19 06:23:35;;;;;;;5.38;3.50;;;22.50;79.00;;;;;;5031395;28;20072;-37
2022/07/19 06:26:01;;;;;;;5.28;3.47;;;22.60;78.20;;;;;;5026483;28;20041;-39
2022/07/19 06:28:27;;;;;;;7.65;4.03;;;22.70;77.90;;;;;;5021201;28;20048;-40
2022/07/19 06:30:53;;;;;;;8.75;4.53;;;22.80;77.80;;;;;;5028580;28;20045;-42
2022/07/19 06:33:19;;;;;;;7.20;4.32;;;22.90;76.90;;;;;;5027789;28;20439;-39
2022/07/19 06:35:45;;;;;;;11.65;4.50;;;23.00;76.40;;;;;;5008716;28;20056;-40
2022/07/19 06:38:11;;;;;;;8.10;4.35;;;23.10;75.50;;;;;;5026730;28;20041;-42
2022/07/19 06:40:37;;;;;;;5.20;3.80;;;23.20;75.00;;;;;;5028488;28;20514;-40
2022/07/19 06:43:02;;;;;;;6.97;4.53;;;23.30;74.70;;;;;;5023981;28;20125;-39
2022/07/19 06:45:28;;;;;;;7.57;4.50;;;23.40;73.30;;;;;;5011317;28;20041;-40
2022/07/19 06:47:54;;;;;;;5.93;3.53;;;23.50;71.40;;;;;;5008029;28;20056;-43
2022/07/19 06:50:20;;;;;;;6.65;4.03;;;23.60;71.30;;;;;;5008110;28;20037;-40
2022/07/19 06:52:47;;;;;;;6.13;3.15;;;23.70;71.00;;;;;;5003678;28;20365;-43
2022/07/19 06:55:13;;;;;;;6.65;3.67;;;23.80;70.80;;;;;;5002538;28;20065;-42
2022/07/19 06:57:39;;;;;;;6.00;3.60;;;23.90;70.50;;;;;;5006494;28;20139;-40
2022/07/19 07:00:07;;;;;;;6.10;3.13;;;24.00;69.90;;;;;;5006771;28;20716;-40
2022/07/19 07:02:33;;;;;;;6.32;3.28;;;24.20;70.30;;;;;;4982311;28;20383;-39
2022/07/19 07:04:59;;;;;;;5.85;3.63;;;24.20;69.60;;;;;;5000622;28;20048;-43
2022/07/19 07:07:25;;;;;;;6.15;3.17;;;24.40;68.60;;;;;;5008096;28;20041;-45
2022/07/19 07:09:50;;;;;;;5.78;3.58;;;24.50;68.10;;;;;;5023846;28;20103;-40
2022/07/19 07:12:16;;;;;;;6.50;3.25;;;24.60;66.10;;;;;;5026051;28;20071;-40
2022/07/19 07:14:42;;;;;;;5.55;3.17;;;24.70;65.20;;;;;;5014893;28;20132;-43
2022/07/19 07:17:07;;;;;;;8.07;3.00;;;24.80;64.90;;;;;;5019422;28;20041;-41
2022/07/19 07:19:33;;;;;;;5.50;3.05;;;24.90;64.20;;;;;;5021771;28;20041;-48
2022/07/19 07:22:00;;;;;;;7.38;2.75;;;25.00;63.60;;;;;;5023160;28;20363;-41
2022/07/19 07:24:27;;;;;;;6.32;3.25;;;25.10;62.90;;;;;;5024011;28;20196;-39
2022/07/19 07:26:52;;;;;;;9.70;2.70;;;25.20;62.10;;;;;;5020108;28;20037;-42
2022/07/19 07:29:18;;;;;;;5.28;2.65;;;25.30;61.30;;;;;;5004547;28;20045;-38
2022/07/19 07:31:44;;;;;;;5.45;2.80;;;25.40;61.00;;;;;;5019564;28;20041;-40
2022/07/19 07:34:09;;;;;;;6.05;2.47;;;25.60;59.10;;;;;;5019845;28;20128;-42
2022/07/19 07:36:35;;;;;;;7.22;2.88;;;25.70;57.60;;;;;;5026167;28;20225;-43
2022/07/19 07:39:01;;;;;;;4.97;2.70;;;25.80;57.40;;;;;;5018833;28;20048;-44
2022/07/19 07:41:27;;;;;;;5.95;2.38;;;25.90;58.40;;;;;;5018932;28;20045;-50
2022/07/19 07:43:52;;;;;;;3.78;2.03;;;26.00;57.40;;;;;;5025916;28;20049;-40
2022/07/19 07:46:18;;;;;;;5.47;2.33;;;26.10;57.50;;;;;;5025476;28;20402;-42
2022/07/19 07:48:43;;;;;;;4.63;2.13;;;26.20;57.40;;;;;;5027250;28;20037;-42
2022/07/19 07:51:09;;;;;;;6.90;2.65;;;26.30;57.40;;;;;;5025714;28;20109;-40
2022/07/19 07:53:35;;;;;;;6.13;2.10;;;26.40;56.60;;;;;;5017618;28;20061;-43
2022/07/19 07:56:01;;;;;;;5.75;2.50;;;26.50;56.50;;;;;;5016910;28;20038;-47
2022/07/19 07:58:27;;;;;;;4.18;2.28;;;26.60;56.70;;;;;;5017439;28;20038;-43
2022/07/19 08:00:52;;;;;;;3.38;1.92;;;26.70;56.00;;;;;;5021746;28;20064;-42
2022/07/19 08:03:18;;;;;;;4.10;2.20;;;26.80;55.40;;;;;;5019502;28;20351;-44
2022/07/19 08:05:47;;;;;;;4.32;1.88;;;27.00;55.20;;;;;;5007869;28;20446;-42
2022/07/19 08:08:16;;;;;;;5.78;2.00;;;27.10;55.20;;;;;;5019187;28;20042;-42
2022/07/19 08:10:42;;;;;;;7.18;1.92;;;27.20;55.40;;;;;;5000821;28;20952;-44
2022/07/19 08:13:07;;;;;;;4.60;2.00;;;27.30;54.80;;;;;;5024503;28;20058;-40
2022/07/19 08:15:34;;;;;;;6.53;2.03;;;27.40;53.80;;;;;;5023249;28;20049;-44
2022/07/19 08:18:00;;;;;;;4.72;1.80;;;27.50;54.00;;;;;;5021207;28;20069;-42
2022/07/19 08:20:26;;;;;;;3.38;2.13;;;27.70;53.60;;;;;;5025812;28;20331;-40
2022/07/19 08:22:51;;;;;;;5.47;1.92;;;27.80;52.90;;;;;;5023266;28;20459;-43
2022/07/19 08:25:17;;;;;;;2.67;1.58;;;27.90;51.90;;;;;;5021589;28;20057;-46
2022/07/19 08:27:46;;;;;;;4.03;2.03;;;28.00;51.20;;;;;;5019319;28;20085;-40
2022/07/19 08:30:12;;;;;;;4.30;1.98;;;28.10;48.90;;;;;;5019812;28;20042;-47
2022/07/19 08:32:39;;;;;;;6.53;2.13;;;28.20;48.40;;;;;;5025332;28;20521;-45
2022/07/19 08:35:06;;;;;;;3.75;1.92;;;28.40;47.90;;;;;;5020210;28;20037;-41
2022/07/19 08:37:31;;;;;;;5.63;2.67;;;28.50;47.40;;;;;;5023012;28;20056;-42
2022/07/19 08:39:57;;;;;;;6.80;2.20;;;28.70;47.30;;;;;;5023559;28;20049;-46
2022/07/19 08:42:24;;;;;;;6.15;2.00;;;28.80;46.50;;;;;;5002201;28;20118;-45
2022/07/19 08:44:52;;;;;;;5.72;2.03;;;28.90;45.90;;;;;;5023829;28;20037;-43
2022/07/19 08:47:22;;;;;;;4.55;1.95;;;29.00;45.90;;;;;;5026001;28;20211;-43
2022/07/19 08:49:48;;;;;;;5.43;1.90;;;29.10;45.50;;;;;;5026728;28;20037;-47
2022/07/19 08:52:14;;;;;;;5.43;1.52;;;29.30;45.40;;;;;;5025756;28;20579;-40
2022/07/19 08:54:40;;;;;;;6.30;1.92;;;29.40;44.90;;;;;;5023092;28;20075;-41
2022/07/19 08:59:51;;;;;;;5.88;1.58;;;29.60;44.80;;;;;;5024175;28;20061;-46
2022/07/19 09:02:17;;;;;;;4.18;1.30;;;29.80;42.80;;;;;;5027138;28;20052;-43
2022/07/19 09:04:42;;;;;;;7.45;1.85;;;29.90;42.00;;;;;;5025857;28;20113;-44
2022/07/19 09:07:08;;;;;;;3.92;1.70;;;30.00;41.70;;;;;;5025512;28;20397;-43
2022/07/19 09:09:36;;;;;;;6.50;1.63;;;30.10;42.00;;;;;;5013224;28;20052;-43
2022/07/19 09:12:05;;;;;;;3.22;1.30;;;30.20;40.20;;;;;;5028023;28;20041;-43
2022/07/19 09:14:38;;;;;;;2.83;1.33;;;30.40;39.60;;;;;;5027198;28;20436;-40
2022/07/19 09:17:12;;;;;;;6.60;1.63;;;30.50;39.30;;;;;;5010660;28;20124;-40
2022/07/19 09:19:40;;;;;;;1.75;1.08;;;30.60;38.30;;;;;;5027720;28;20132;-41
2022/07/19 09:22:09;;;;;;;7.10;1.67;;;30.70;38.30;;;;;;5030779;28;20182;-44
2022/07/19 09:24:37;;;;;;;3.58;1.17;;;30.80;38.50;;;;;;5029183;28;20383;-40
2022/07/19 09:27:07;;;;;;;5.00;1.55;;;30.90;38.30;;;;;;5027429;28;20045;-42
2022/07/19 09:29:36;;;;;;;3.30;1.52;;;31.00;38.10;;;;;;5029515;28;20038;-40
2022/07/19 09:32:14;;;;;;;2.80;1.40;;;31.00;37.70;;;;;;5025398;28;20439;-42
2022/07/19 09:34:50;;;;;;;2.17;1.23;;;31.10;37.40;;;;;;5027951;28;20053;-41
2022/07/19 09:37:28;;;;;;;2.88;1.20;;;31.30;36.00;;;;;;5027979;28;20042;-44
2022/07/19 09:39:56;;;;;;;6.10;1.40;;;31.40;36.30;;;;;;5009932;28;20450;-40
2022/07/19 09:42:42;;;;;;;7.22;1.58;;;31.50;36.30;;;;;;5018779;28;20079;-43
2022/07/19 09:45:12;;;;;;;4.95;1.45;;;31.70;35.60;;;;;;5029465;28;20052;-41
2022/07/19 09:47:46;;;;;;;3.30;1.67;;;31.80;35.30;;;;;;5025275;28;20038;-40
2022/07/19 09:50:16;;;;;;;6.32;1.83;;;32.00;34.40;;;;;;5029812;28;20048;-42
2022/07/19 09:52:43;;;;;;;4.78;1.45;;;32.00;34.00;;;;;;5027387;28;20114;-40
2022/07/19 09:55:10;;;;;;;3.92;1.50;;;32.10;33.60;;;;;;5024857;28;20050;-42
2022/07/19 09:57:46;;;;;;;8.13;1.42;;;32.20;33.10;;;;;;5023950;28;20044;-42
2022/07/19 10:00:14;;;;;;;3.15;1.50;;;32.20;33.40;;;;;;5026234;28;20045;-46
2022/07/19 10:02:43;;;;;;;4.55;1.30;;;32.40;33.10;;;;;;5027110;28;20064;-41
2022/07/19 10:05:10;;;;;;;4.05;1.60;;;32.50;32.40;;;;;;5027071;28;20048;-43
2022/07/19 10:07:36;;;;;;;5.20;1.60;;;32.50;31.80;;;;;;5029811;28;20080;-41
2022/07/19 10:10:14;;;;;;;6.10;1.50;;;32.60;31.50;;;;;;5028038;28;20111;-42
2022/07/19 10:12:43;;;;;;;7.53;1.90;;;32.80;31.40;;;;;;5022393;28;20045;-40
2022/07/19 10:15:10;;;;;;;3.47;1.50;;;32.90;31.00;;;;;;5028509;28;20103;-40
2022/07/19 10:17:56;;;;;;;4.25;1.48;;;33.00;31.30;;;;;;5027229;28;20147;-40
2022/07/19 10:20:25;;;;;;;2.70;1.40;;;33.00;32.30;;;;;;5026726;28;20490;-42
2022/07/19 10:22:51;;;;;;;5.47;1.67;;;33.20;30.90;;;;;;5025359;28;20041;-39
2022/07/19 10:25:17;;;;;;;4.15;1.33;;;33.20;30.60;;;;;;5012473;28;20128;-42
2022/07/19 10:27:50;;;;;;;7.18;1.50;;;33.30;30.90;;;;;;5025985;28;20068;-40
2022/07/19 10:30:20;;;;;;;3.20;1.75;;;33.40;30.10;;;;;;5023447;28;20072;-40
2022/07/19 10:32:47;;;;;;;7.45;1.27;;;33.50;30.60;;;;;;5026308;28;20073;-40
2022/07/19 10:35:25;;;;;;;5.55;1.50;;;33.50;29.90;;;;;;5027623;28;20036;-40
2022/07/19 10:38:09;;;;;;;2.95;1.30;;;33.60;30.00;;;;;;5023545;28;20052;-43
2022/07/19 10:40:48;;;;;;;4.20;1.55;;;33.70;30.10;;;;;;5024917;28;20059;-40
2022/07/19 10:43:20;;;;;;;6.00;1.95;;;33.90;30.70;;;;;;5025367;28;20056;-41
2022/07/19 10:45:59;;;;;;;8.75;2.10;;;34.10;30.00;;;;;;5010351;28;20037;-40
2022/07/19 10:48:45;;;;;;;3.58;1.90;;;34.10;29.70;;;;;;5027438;28;20464;-40
2022/07/19 10:51:26;;;;;;;5.63;1.65;;;34.10;30.20;;;;;;5025542;28;20395;-40
2022/07/19 10:53:57;;;;;;;4.03;1.80;;;34.20;30.10;;;;;;5004201;28;20041;-40
2022/07/19 10:56:35;;;;;;;6.72;1.80;;;34.40;29.80;;;;;;5028516;28;20049;-40
2022/07/19 10:59:05;;;;;;;3.88;2.10;;;34.40;29.60;;;;;;5019566;28;20033;-39
2022/07/19 11:01:33;;;;;;;4.82;1.48;;;34.40;29.80;;;;;;5028174;28;20040;-39
2022/07/19 11:04:26;;;;;;;5.85;1.60;;;34.40;30.10;;;;;;5029572;28;20052;-40
2022/07/19 11:07:10;;;;;;;4.85;1.50;;;34.50;29.80;;;;;;5026820;28;20150;-40
2022/07/19 11:09:43;;;;;;;6.28;1.50;;;34.70;29.10;;;;;;5026591;28;20428;-40
2022/07/19 11:12:21;;;;;;;4.38;1.48;;;34.70;29.60;;;;;;5027743;28;20042;-39
2022/07/19 11:14:47;;;;;;;3.92;1.35;;;34.80;28.90;;;;;;5025841;28;20068;-40
2022/07/19 11:17:12;;;;;;;3.85;1.30;;;34.80;28.90;;;;;;5020580;28;20037;-41
2022/07/19 11:20:12;;;;;;;9.82;1.63;;;34.90;28.30;;;;;;5020683;28;20470;-42
2022/07/19 11:22:44;;;;;;;6.57;1.70;;;35.00;27.90;;;;;;5024571;28;20513;-40
2022/07/19 11:25:11;;;;;;;4.45;1.40;;;35.00;28.30;;;;;;5027798;28;20037;-40
2022/07/19 11:27:41;;;;;;;8.63;1.42;;;35.10;28.60;;;;;;5027721;28;20060;-42
2022/07/19 11:30:07;;;;;;;4.32;1.30;;;35.10;28.10;;;;;;5020437;28;20034;-39
2022/07/19 11:32:33;;;;;;;3.38;1.25;;;35.20;28.20;;;;;;5022400;28;20137;-42
2022/07/19 11:35:03;;;;;;;3.83;1.63;;;35.30;28.70;;;;;;4985909;28;20132;-42
2022/07/19 11:37:32;;;;;;;3.03;1.40;;;35.60;28.90;;;;;;5002310;28;20042;-44
2022/07/19 11:39:58;;;;;;;3.28;1.05;;;35.70;28.20;;;;;;5007885;28;20065;-40
2022/07/19 11:42:37;;;;;;;2.40;1.13;;;35.80;27.80;;;;;;5008569;28;20037;-40
2022/07/19 11:45:11;;;;;;;5.95;1.30;;;36.00;27.40;;;;;;5008044;28;20037;-42
2022/07/19 11:47:41;;;;;;;3.28;1.48;;;36.10;27.20;;;;;;4989938;28;20141;-40
2022/07/19 11:50:09;;;;;;;5.35;1.63;;;36.20;27.10;;;;;;5002707;28;20308;-40
2022/07/19 11:52:50;;;;;;;3.63;1.50;;;36.20;27.70;;;;;;5008345;28;20126;-38
2022/07/19 11:55:20;;;;;;;3.60;1.40;;;36.20;26.20;;;;;;5007848;28;20080;-39
2022/07/19 11:57:46;;;;;;;3.25;1.45;;;36.20;26.20;;;;;;5005855;28;20570;-36
2022/07/19 12:00:13;;;;;;;2.60;1.60;;;36.20;26.10;;;;;;5000964;28;20038;-40
2022/07/19 12:03:04;;;;;;;3.72;1.70;;;36.30;26.40;;;;;;5005905;28;20045;-43
2022/07/19 12:05:38;;;;;;;2.80;1.25;;;36.40;26.00;;;;;;5006721;28;20042;-42
2022/07/19 12:08:09;;;;;;;5.60;1.50;;;36.50;25.80;;;;;;5004161;28;20026;-42
2022/07/19 12:10:53;;;;;;;4.13;1.50;;;36.50;25.60;;;;;;4984610;28;20117;-40
2022/07/19 12:13:33;;;;;;;2.72;1.10;;;36.50;26.00;;;;;;5003750;28;20436;-38
2022/07/19 12:16:08;;;;;;;6.80;1.60;;;36.50;26.40;;;;;;5005698;28;20046;-42
2022/07/19 12:18:55;;;;;;;2.58;1.25;;;36.60;24.70;;;;;;5003698;28;20494;-43
2022/07/19 12:21:26;;;;;;;2.80;1.58;;;36.70;25.00;;;;;;5007849;28;20046;-40
2022/07/19 12:24:16;;;;;;;5.05;1.70;;;36.80;24.90;;;;;;5007521;28;20517;-39
2022/07/19 12:26:51;;;;;;;2.17;1.70;;;36.80;24.70;;;;;;4988163;28;20050;-40
2022/07/19 12:29:36;;;;;;;6.13;1.85;;;36.80;24.80;;;;;;5004524;28;20046;-40
2022/07/19 12:32:08;;;;;;;4.18;1.83;;;36.90;24.80;;;;;;5007735;28;20041;-42
2022/07/19 12:34:49;;;;;;;3.90;2.03;;;37.10;24.70;;;;;;5005777;28;20057;-42
2022/07/19 12:37:22;;;;;;;5.78;1.65;;;37.00;24.10;;;;;;5002908;28;20049;-42
2022/07/19 12:40:08;;;;;;;4.47;1.55;;;36.90;24.50;;;;;;5007367;28;20053;-44
2022/07/19 12:43:00;;;;;;;1.83;1.63;;;37.00;24.30;;;;;;5006097;28;20034;-42
2022/07/19 12:45:39;;;;;;;6.88;1.40;;;37.10;24.00;;;;;;5008212;28;20096;-40
2022/07/19 12:48:06;;;;;;;2.78;1.63;;;37.10;24.40;;;;;;5006715;28;20045;-40
2022/07/19 12:50:37;;;;;;;4.72;1.45;;;37.20;24.40;;;;;;5011593;28;20510;-39
2022/07/19 12:53:05;;;;;;;2.33;1.52;;;37.20;24.10;;;;;;5007228;28;20048;-42
2022/07/19 12:55:33;;;;;;;2.65;1.33;;;37.20;24.40;;;;;;5009954;28;20080;-40